createdAt,value
2019-06-08T00:01:22.872Z,0.90
2019-06-08T00:03:52.710Z,1.17
2019-06-08T00:06:22.999Z,0.80
2019-06-08T00:08:52.774Z,1.70
2019-06-08T00:11:23.469Z,0.90
2019-06-08T00:13:53.167Z,1.00
2019-06-08T00:16:23.839Z,0.93
2019-06-08T00:18:53.504Z,5.00
2019-06-08T00:21:24.280Z,3.97
2019-06-08T00:23:53.973Z,2.77
2019-06-08T00:26:24.391Z,2.80
2019-06-08T00:28:54.039Z,2.70
2019-06-08T00:31:23.635Z,2.20
2019-06-08T00:33:53.255Z,1.63
2019-06-08T00:36:23.070Z,1.70
2019-06-08T00:38:52.976Z,1.00
2019-06-08T00:41:23.581Z,1.00
2019-06-08T00:43:53.295Z,1.17
2019-06-08T00:46:23.609Z,0.63
2019-06-08T00:48:53.432Z,0.97
2019-06-08T00:51:23.161Z,0.90
2019-06-08T00:53:52.878Z,0.93
2019-06-08T00:56:23.721Z,0.97
2019-06-08T00:58:53.418Z,1.00
2019-06-08T01:01:25.075Z,0.67
2019-06-08T01:03:54.338Z,1.10
2019-06-08T01:06:24.985Z,0.90
2019-06-08T01:08:54.656Z,0.93
2019-06-08T01:11:24.764Z,1.10
2019-06-08T01:13:54.508Z,1.30
2019-06-08T01:16:25.029Z,0.80
2019-06-08T01:18:54.680Z,0.97
2019-06-08T01:21:25.466Z,0.90
2019-06-08T01:23:55.221Z,0.80
2019-06-08T01:26:25.960Z,0.80
2019-06-08T01:28:57.211Z,1.10
2019-06-08T01:31:26.930Z,0.70
2019-06-08T01:33:56.459Z,0.80
2019-06-08T01:36:29.047Z,1.20
2019-06-08T01:39:00.282Z,1.37
2019-06-08T01:41:29.899Z,1.00
2019-06-08T01:44:18.829Z,1.03
2019-06-08T01:46:48.405Z,0.93
2019-06-08T01:49:18.008Z,0.97
2019-06-08T01:51:47.806Z,0.80
2019-06-08T01:54:17.335Z,1.10
2019-06-08T01:56:47.334Z,0.93
2019-06-08T01:59:16.853Z,1.27
2019-06-08T02:01:46.432Z,1.27
2019-06-08T02:04:16.059Z,1.10
2019-06-08T02:06:45.749Z,0.83
2019-06-08T02:09:15.399Z,0.90
2019-06-08T02:11:45.121Z,0.93
2019-06-08T02:14:14.776Z,0.97
2019-06-08T02:16:44.325Z,1.10
2019-06-08T02:19:13.841Z,0.80
2019-06-08T02:21:43.599Z,1.00
2019-06-08T02:24:13.385Z,0.90
2019-06-08T02:26:43.029Z,0.93
2019-06-08T02:29:12.616Z,1.00
2019-06-08T02:31:42.089Z,1.20
2019-06-08T02:34:14.918Z,1.17
2019-06-08T02:36:44.460Z,0.93
2019-06-08T02:39:14.130Z,1.00
2019-06-08T02:41:43.735Z,0.70
2019-06-08T02:44:13.366Z,0.90
2019-06-08T02:46:42.903Z,0.63
2019-06-08T02:49:12.500Z,0.80
2019-06-08T02:51:43.044Z,1.00
2019-06-08T02:54:13.193Z,0.80
2019-06-08T02:56:44.222Z,0.87
2019-06-08T02:59:15.440Z,0.90
2019-06-08T03:01:48.351Z,0.70
2019-06-08T03:04:19.678Z,1.53
2019-06-08T03:06:50.942Z,1.37
2019-06-08T03:09:23.530Z,0.80
2019-06-08T03:11:56.960Z,1.00
2019-06-08T03:14:33.178Z,1.13
2019-06-08T03:17:02.819Z,0.93
2019-06-08T03:19:33.300Z,1.10
2019-06-08T03:22:03.221Z,0.80
2019-06-08T03:24:34.369Z,0.90
2019-06-08T03:27:04.270Z,1.00
2019-06-08T03:29:34.984Z,1.37
2019-06-08T03:32:05.128Z,1.33
2019-06-08T03:34:56.702Z,0.80
2019-06-08T03:37:25.161Z,0.87
2019-06-08T03:39:54.627Z,0.97
2019-06-08T03:42:24.297Z,0.90
2019-06-08T03:44:53.812Z,0.83
2019-06-08T03:47:23.456Z,0.93
2019-06-08T03:49:57.352Z,1.40
2019-06-08T03:52:23.905Z,1.20
2019-06-08T03:54:53.643Z,1.43
2019-06-08T03:57:23.711Z,1.27
2019-06-08T03:59:53.229Z,0.80
2019-06-08T04:02:22.790Z,2.03
2019-06-08T04:04:52.381Z,1.90
2019-06-08T04:07:21.917Z,1.13
2019-06-08T04:09:51.506Z,1.10
2019-06-08T04:12:22.119Z,0.90
2019-06-08T04:14:51.630Z,0.90
2019-06-08T04:17:21.248Z,1.20
2019-06-08T04:20:09.786Z,0.87
2019-06-08T04:22:23.150Z,0.97
2019-06-08T04:24:52.675Z,1.07
2019-06-08T04:27:22.412Z,1.00
2019-06-08T04:29:51.927Z,0.90
2019-06-08T04:32:21.567Z,1.00
2019-06-08T04:34:51.092Z,1.13
2019-06-08T04:37:21.108Z,0.90
2019-06-08T04:39:50.996Z,1.90
2019-06-08T04:42:21.254Z,1.27
2019-06-08T04:44:51.800Z,1.33
2019-06-08T04:47:21.418Z,0.90
2019-06-08T04:49:51.621Z,1.10
2019-06-08T04:52:47.434Z,1.43
2019-06-08T04:55:17.573Z,1.50
2019-06-08T04:57:48.673Z,1.17
2019-06-08T05:00:19.329Z,1.92
2019-06-08T05:02:51.118Z,1.00
2019-06-08T05:05:20.632Z,0.97
2019-06-08T05:07:50.514Z,1.03
2019-06-08T05:10:20.197Z,1.60
2019-06-08T05:12:50.390Z,1.23
2019-06-08T05:15:21.197Z,1.20
2019-06-08T05:17:50.830Z,1.20
2019-06-08T05:20:35.030Z,1.20
2019-06-08T05:22:51.711Z,1.40
2019-06-08T05:25:21.350Z,1.25
2019-06-08T05:27:52.071Z,1.30
2019-06-08T05:30:22.943Z,1.40
2019-06-08T05:32:52.563Z,1.43
2019-06-08T05:35:22.212Z,1.30
2019-06-08T05:37:51.756Z,1.63
2019-06-08T05:40:23.353Z,1.30
2019-06-08T05:42:52.642Z,1.40
2019-06-08T05:45:22.110Z,1.47
2019-06-08T05:47:51.649Z,1.40
2019-06-08T05:50:21.302Z,1.80
2019-06-08T05:52:50.955Z,1.50
2019-06-08T05:55:20.645Z,1.10
2019-06-08T05:57:50.601Z,1.77
2019-06-08T06:00:20.756Z,2.00
2019-06-08T06:02:51.009Z,1.23
2019-06-08T06:05:21.006Z,1.33
2019-06-08T06:07:51.242Z,1.40
2019-06-08T06:10:21.202Z,1.50
2019-06-08T06:12:51.210Z,1.20
2019-06-08T06:15:21.272Z,1.40
2019-06-08T06:17:51.594Z,1.50
2019-06-08T06:20:21.907Z,1.80
2019-06-08T06:22:52.551Z,1.33
2019-06-08T06:25:22.309Z,1.40
2019-06-08T06:27:52.113Z,1.57
2019-06-08T06:30:24.212Z,1.53
2019-06-08T06:32:53.726Z,1.60
2019-06-08T06:35:24.919Z,1.33
2019-06-08T06:37:54.792Z,1.40
2019-06-08T06:40:24.682Z,1.85
2019-06-08T06:42:54.589Z,1.50
2019-06-08T06:45:24.282Z,1.70
2019-06-08T06:47:53.855Z,1.50
2019-06-08T06:50:23.438Z,1.27
2019-06-08T06:52:53.046Z,1.40
2019-06-08T06:55:25.390Z,1.90
2019-06-08T06:57:54.029Z,1.30
2019-06-08T07:00:43.243Z,1.55
2019-06-08T07:03:13.065Z,1.20
2019-06-08T07:05:43.715Z,1.47
2019-06-08T07:08:13.471Z,1.63
2019-06-08T07:10:44.509Z,1.50
2019-06-08T07:13:14.235Z,1.23
2019-06-08T07:15:44.822Z,1.37
2019-06-08T07:18:14.744Z,1.27
2019-06-08T07:20:44.464Z,1.33
2019-06-08T07:23:14.016Z,2.53
2019-06-08T07:25:43.711Z,1.50
2019-06-08T07:28:13.314Z,1.70
2019-06-08T07:30:43.121Z,1.77
2019-06-08T07:33:24.795Z,1.80
2019-06-08T07:35:55.331Z,1.60
2019-06-08T07:38:24.978Z,1.60
2019-06-08T07:40:58.443Z,1.53
2019-06-08T07:43:25.898Z,1.90
2019-06-08T07:45:56.276Z,1.60
2019-06-08T07:48:25.953Z,1.50
2019-06-08T07:50:56.412Z,1.90
2019-06-08T07:53:26.263Z,1.83
2019-06-08T07:55:56.270Z,1.77
2019-06-08T07:58:25.993Z,1.07
2019-06-08T08:01:07.682Z,1.53
2019-06-08T08:03:32.145Z,1.50
2019-06-08T08:06:02.453Z,1.67
2019-06-08T08:08:52.519Z,1.53
2019-06-08T08:11:22.373Z,1.70
2019-06-08T08:13:54.968Z,1.90
2019-06-08T08:16:24.947Z,1.73
2019-06-08T08:18:55.575Z,1.70
2019-06-08T08:21:28.794Z,1.70
2019-06-08T08:23:59.648Z,1.30
2019-06-08T08:26:30.451Z,1.13
2019-06-08T08:29:02.783Z,1.20
2019-06-08T08:31:30.871Z,1.60
2019-06-08T08:34:05.710Z,1.83
2019-06-08T08:36:33.341Z,1.60
2019-06-08T08:39:03.279Z,2.20
2019-06-08T08:41:56.321Z,2.23
2019-06-08T08:44:23.555Z,1.50
2019-06-08T08:46:54.751Z,1.63
2019-06-08T08:49:24.871Z,1.97
2019-06-08T08:51:54.598Z,1.73
2019-06-08T08:54:24.258Z,1.87
2019-06-08T08:56:56.673Z,2.27
2019-06-08T09:02:20.550Z,1.30
2019-06-08T09:04:47.725Z,1.60
2019-06-08T09:07:18.349Z,1.70
2019-06-08T09:09:48.339Z,1.60
2019-06-08T09:12:18.428Z,1.60
2019-06-08T09:14:48.313Z,1.60
2019-06-08T09:17:18.221Z,2.20
2019-06-08T09:19:48.189Z,1.70
2019-06-08T09:22:18.768Z,2.00
2019-06-08T09:24:48.700Z,1.70
2019-06-08T09:27:18.696Z,1.50
2019-06-08T09:29:48.448Z,2.20
2019-06-08T09:32:18.208Z,1.60
2019-06-08T09:34:48.327Z,2.03
2019-06-08T09:37:18.619Z,1.90
2019-06-08T09:39:48.442Z,1.63
2019-06-08T09:42:21.206Z,1.53
2019-06-08T09:44:49.639Z,1.50
2019-06-08T09:47:19.326Z,2.10
2019-06-08T09:49:49.063Z,1.90
2019-06-08T09:52:21.473Z,1.70
2019-06-08T09:54:49.917Z,2.53
2019-06-08T09:57:19.745Z,1.40
2019-06-08T09:59:49.471Z,1.80
2019-06-08T10:02:19.201Z,1.43
2019-06-08T10:04:49.213Z,1.70
2019-06-08T10:07:19.031Z,1.40
2019-06-08T10:09:50.189Z,1.83
2019-06-08T10:12:19.907Z,1.63
2019-06-08T10:14:49.619Z,1.60
2019-06-08T10:17:20.980Z,1.30
2019-06-08T10:19:50.880Z,1.60
2019-06-08T10:22:20.815Z,1.67
2019-06-08T10:24:50.433Z,1.67
2019-06-08T10:27:20.108Z,1.77
2019-06-08T10:29:49.885Z,1.57
2019-06-08T10:32:20.813Z,1.97
2019-06-08T10:34:50.428Z,1.70
2019-06-08T10:37:20.037Z,1.70
2019-06-08T10:40:09.496Z,1.40
2019-06-08T10:42:40.224Z,1.47
2019-06-08T10:45:14.370Z,1.33
2019-06-08T10:47:41.954Z,1.70
2019-06-08T10:50:15.359Z,2.33
2019-06-08T10:52:59.406Z,1.77
2019-06-08T10:55:28.224Z,1.37
2019-06-08T10:57:58.095Z,1.70
2019-06-08T11:00:28.308Z,1.43
2019-06-08T11:03:01.329Z,1.70
2019-06-08T11:05:29.473Z,1.53
2019-06-08T11:08:00.598Z,1.43
2019-06-08T11:10:30.543Z,1.70
2019-06-08T11:13:05.172Z,1.70
2019-06-08T11:15:31.719Z,1.57
2019-06-08T11:18:03.516Z,1.67
2019-06-08T11:20:32.947Z,1.40
2019-06-08T11:23:03.998Z,1.63
2019-06-08T11:25:37.535Z,1.70
2019-06-08T11:28:11.832Z,1.73
2019-06-08T11:30:38.859Z,1.80
2019-06-08T11:33:09.407Z,2.40
2019-06-08T11:35:39.724Z,2.17
2019-06-08T11:38:12.390Z,1.73
2019-06-08T11:40:40.592Z,1.30
2019-06-08T11:43:10.658Z,1.77
2019-06-08T11:45:40.332Z,1.53
2019-06-08T11:48:10.944Z,1.53
2019-06-08T11:50:43.597Z,1.87
2019-06-08T11:53:14.808Z,1.60
2019-06-08T11:55:44.584Z,1.87
2019-06-08T11:58:14.817Z,1.87
2019-06-08T12:01:04.646Z,1.67
2019-06-08T12:03:33.605Z,1.47
2019-06-08T12:06:04.249Z,2.20
2019-06-08T12:08:33.844Z,1.70
2019-06-08T12:11:04.272Z,1.90
2019-06-08T12:13:35.074Z,1.77
2019-06-08T12:16:05.009Z,1.80
2019-06-08T12:18:34.722Z,1.80
2019-06-08T12:21:05.590Z,1.60
2019-06-08T12:23:35.187Z,1.73
2019-06-08T12:26:06.096Z,1.70
2019-06-08T12:28:38.054Z,1.83
2019-06-08T12:31:13.194Z,1.50
2019-06-08T12:33:39.094Z,1.67
2019-06-08T12:36:12.019Z,1.50
2019-06-08T12:38:40.303Z,1.97
2019-06-08T12:41:12.311Z,2.03
2019-06-08T12:43:41.844Z,1.97
2019-06-08T12:46:13.045Z,2.10
2019-06-08T12:48:42.968Z,1.30
2019-06-08T12:51:13.675Z,1.67
2019-06-08T12:53:43.836Z,1.97
2019-06-08T12:56:14.745Z,2.00
2019-06-08T12:58:44.583Z,1.57
2019-06-08T13:01:14.612Z,2.23
2019-06-08T13:03:44.169Z,2.10
2019-06-08T13:06:14.079Z,1.80
2019-06-08T13:08:43.719Z,2.17
2019-06-08T13:11:13.949Z,2.27
2019-06-08T13:13:43.724Z,1.67
2019-06-08T13:16:14.587Z,2.00
2019-06-08T13:18:44.245Z,2.07
2019-06-08T13:21:25.492Z,1.50
2019-06-08T13:23:45.222Z,1.43
2019-06-08T13:26:20.122Z,1.63
2019-06-08T13:28:45.993Z,1.70
2019-06-08T13:31:18.193Z,1.93
2019-06-08T13:33:48.585Z,1.70
2019-06-08T13:36:22.126Z,1.27
2019-06-08T13:38:49.463Z,1.77
2019-06-08T13:41:20.269Z,1.40
2019-06-08T13:43:50.376Z,1.83
2019-06-08T13:46:22.317Z,1.50
2019-06-08T13:48:51.121Z,2.00
2019-06-08T13:51:22.528Z,1.70
2019-06-08T13:53:52.161Z,1.50
2019-06-08T13:56:22.707Z,1.17
2019-06-08T13:58:53.059Z,1.50
2019-06-08T14:01:23.672Z,1.43
2019-06-08T14:03:53.983Z,1.30
2019-06-08T14:06:24.895Z,1.37
2019-06-08T14:08:54.806Z,1.60
2019-06-08T14:11:25.297Z,1.40
2019-06-08T14:14:00.763Z,2.10
2019-06-08T14:16:29.677Z,1.80
2019-06-08T14:18:58.723Z,1.77
2019-06-08T14:21:37.384Z,1.70
2019-06-08T14:23:59.688Z,1.20
2019-06-08T14:26:29.673Z,1.37
2019-06-08T14:29:01.583Z,2.07
2019-06-08T14:31:32.173Z,2.07
2019-06-08T14:34:02.255Z,1.30
2019-06-08T14:36:32.037Z,1.30
2019-06-08T14:39:02.539Z,1.57
2019-06-08T14:41:32.487Z,1.67
2019-06-08T14:44:02.184Z,1.73
2019-06-08T14:46:31.866Z,1.23
2019-06-08T14:49:01.471Z,1.60
2019-06-08T14:51:48.867Z,1.20
2019-06-08T14:54:24.393Z,1.80
2019-06-08T14:56:51.238Z,1.60
2019-06-08T14:59:22.029Z,1.50
2019-06-08T15:01:52.310Z,1.80
2019-06-08T15:04:23.852Z,1.80
2019-06-08T15:06:53.278Z,1.73
2019-06-08T15:09:23.477Z,1.20
2019-06-08T15:11:53.134Z,1.30
2019-06-08T15:14:23.669Z,2.03
2019-06-08T15:16:53.274Z,1.60
2019-06-08T15:19:22.896Z,1.23
2019-06-08T15:21:52.518Z,1.80
2019-06-08T15:24:22.661Z,2.23
2019-06-08T15:26:52.239Z,1.60
2019-06-08T15:29:22.842Z,1.50
2019-06-08T15:31:52.604Z,1.60
2019-06-08T15:34:23.208Z,1.53
2019-06-08T15:36:52.990Z,1.40
2019-06-08T15:39:23.470Z,1.10
2019-06-08T15:41:53.156Z,1.23
2019-06-08T15:44:23.396Z,2.07
2019-06-08T15:46:54.201Z,1.73
2019-06-08T15:49:24.142Z,1.50
2019-06-08T15:51:53.751Z,1.63
2019-06-08T15:54:24.623Z,2.80
2019-06-08T15:56:54.526Z,2.00
2019-06-08T15:59:24.858Z,2.53
2019-06-08T16:01:54.521Z,1.80
2019-06-08T16:04:25.410Z,2.30
2019-06-08T16:06:55.495Z,2.70
2019-06-08T16:09:25.993Z,1.83
2019-06-08T16:11:55.841Z,1.80
2019-06-08T16:14:26.593Z,1.33
2019-06-08T16:16:56.303Z,1.63
2019-06-08T16:19:25.864Z,2.90
2019-06-08T16:21:55.770Z,8.50
2019-06-08T16:24:27.666Z,3.33
2019-06-08T16:26:56.179Z,1.40
2019-06-08T16:29:26.771Z,1.70
2019-06-08T16:31:56.522Z,1.87
2019-06-08T16:34:27.278Z,2.27
2019-06-08T16:36:57.596Z,1.83
2019-06-08T16:39:28.563Z,1.60
2019-06-08T16:41:58.303Z,1.50
2019-06-08T16:44:28.138Z,2.03
2019-06-08T16:46:57.827Z,1.33
2019-06-08T16:49:27.488Z,1.97
2019-06-08T16:51:57.249Z,1.40
2019-06-08T16:54:26.865Z,1.23
2019-06-08T16:57:09.575Z,1.37
2019-06-08T16:59:28.193Z,1.10
2019-06-08T17:01:57.780Z,1.20
2019-06-08T17:04:28.615Z,1.03
2019-06-08T17:06:58.521Z,1.40
2019-06-08T17:09:28.558Z,1.57
2019-06-08T17:11:59.166Z,1.77
2019-06-08T17:14:29.983Z,2.10
2019-06-08T17:16:59.604Z,1.70
2019-06-08T17:19:30.212Z,1.47
2019-06-08T17:21:59.878Z,1.20
2019-06-08T17:24:30.351Z,2.00
2019-06-08T17:26:59.532Z,1.20
2019-06-08T17:29:29.000Z,1.50
2019-06-08T17:31:58.682Z,1.70
2019-06-08T17:34:27.888Z,2.13
2019-06-08T17:36:57.500Z,1.20
2019-06-08T17:39:29.381Z,1.00
2019-06-08T17:41:58.351Z,0.80
2019-06-08T17:44:27.942Z,0.93
2019-06-08T17:46:57.794Z,1.40
2019-06-08T17:49:27.328Z,1.10
2019-06-08T17:51:57.013Z,1.10
2019-06-08T17:54:26.633Z,1.10
2019-06-08T17:56:55.990Z,1.20
2019-06-08T17:59:25.406Z,1.10
2019-06-08T18:01:55.240Z,0.70
2019-06-08T18:04:24.745Z,1.03
2019-06-08T18:06:54.606Z,1.00
2019-06-08T18:09:23.861Z,1.10
2019-06-08T18:11:53.519Z,1.10
2019-06-08T18:14:23.177Z,1.30
2019-06-08T18:16:52.989Z,0.90
2019-06-08T18:19:28.721Z,1.03
2019-06-08T18:22:04.748Z,1.00
2019-06-08T18:24:30.097Z,1.30
2019-06-08T18:26:59.701Z,1.80
2019-06-08T18:29:29.248Z,0.93
2019-06-08T18:31:59.224Z,1.43
2019-06-08T18:34:29.013Z,1.17
2019-06-08T18:36:58.798Z,1.17
2019-06-08T18:39:29.353Z,1.43
2019-06-08T18:41:59.104Z,1.17
2019-06-08T18:44:29.327Z,1.77
2019-06-08T18:46:58.878Z,1.73
2019-06-08T18:49:29.112Z,2.30
2019-06-08T18:51:58.916Z,1.40
2019-06-08T18:54:28.271Z,1.60
2019-06-08T18:56:57.935Z,1.30
2019-06-08T18:59:28.632Z,1.50
2019-06-08T19:01:58.146Z,1.60
2019-06-08T19:04:30.686Z,1.53
2019-06-08T19:07:01.782Z,1.03
2019-06-08T19:09:32.383Z,1.10
2019-06-08T19:12:01.988Z,1.00
2019-06-08T19:14:31.504Z,1.10
2019-06-08T19:17:01.069Z,1.10
2019-06-08T19:19:31.533Z,0.97
2019-06-08T19:22:01.319Z,0.97
2019-06-08T19:24:30.944Z,0.90
2019-06-08T19:27:00.626Z,1.10
2019-06-08T19:29:30.244Z,1.00
2019-06-08T19:32:00.745Z,0.80
2019-06-08T19:34:33.272Z,1.40
2019-06-08T19:37:01.742Z,1.87
2019-06-08T19:39:31.352Z,1.87
2019-06-08T19:42:00.875Z,4.50
2019-06-08T19:44:30.669Z,3.63
2019-06-08T19:47:00.361Z,1.83
2019-06-08T19:49:30.090Z,2.37
2019-06-08T19:51:59.792Z,3.63
2019-06-08T19:54:29.325Z,3.50
2019-06-08T19:56:59.006Z,2.57
2019-06-08T19:59:28.536Z,2.17
2019-06-08T20:01:59.884Z,3.23
2019-06-08T20:04:29.361Z,3.10
2019-06-08T20:07:00.604Z,2.67
2019-06-08T20:09:30.298Z,2.57
2019-06-08T20:12:00.294Z,3.10
2019-06-08T20:14:30.053Z,2.87
2019-06-08T20:16:59.807Z,2.30
2019-06-08T20:19:29.435Z,2.50
2019-06-08T20:21:59.048Z,2.77
2019-06-08T20:24:28.643Z,1.97
2019-06-08T20:26:57.927Z,2.77
2019-06-08T20:29:28.288Z,3.50
2019-06-08T20:31:58.587Z,2.33
2019-06-08T20:34:28.260Z,2.73
2019-06-08T20:37:01.161Z,2.30
2019-06-08T20:39:29.060Z,1.93
2019-06-08T20:41:58.783Z,2.13
2019-06-08T20:44:30.215Z,2.93
2019-06-08T20:46:59.781Z,2.63
2019-06-08T20:49:29.340Z,3.77
2019-06-08T20:52:00.408Z,2.90
2019-06-08T20:54:30.234Z,2.80
2019-06-08T20:56:59.816Z,2.30
2019-06-08T20:59:33.855Z,3.07
2019-06-08T21:02:00.843Z,2.23
2019-06-08T21:04:30.400Z,4.17
2019-06-08T21:06:59.922Z,2.43
2019-06-08T21:09:29.485Z,2.37
2019-06-08T21:11:59.113Z,2.60
2019-06-08T21:14:28.647Z,3.10
2019-06-08T21:16:58.714Z,3.30
2019-06-08T21:19:28.461Z,2.50
2019-06-08T21:21:59.208Z,3.20
2019-06-08T21:24:29.206Z,2.83
2019-06-08T21:27:02.298Z,3.10
2019-06-08T21:29:47.051Z,2.70
2019-06-08T21:32:03.253Z,2.57
2019-06-08T21:34:32.924Z,2.70
2019-06-08T21:37:02.739Z,2.90
2019-06-08T21:39:32.311Z,2.77
2019-06-08T21:42:03.382Z,3.10
2019-06-08T21:44:33.236Z,2.47
2019-06-08T21:47:02.847Z,3.20
2019-06-08T21:49:32.379Z,2.60
2019-06-08T21:52:02.148Z,3.50
2019-06-08T21:54:31.665Z,3.13
2019-06-08T21:57:01.341Z,2.50
2019-06-08T21:59:31.044Z,3.50
2019-06-08T22:02:03.894Z,2.53
2019-06-08T22:04:32.234Z,2.43
2019-06-08T22:07:03.260Z,3.47
2019-06-08T22:09:32.986Z,2.33
2019-06-08T22:12:03.310Z,2.60
2019-06-08T22:14:32.944Z,2.80
2019-06-08T22:17:03.251Z,3.57
2019-06-08T22:19:32.915Z,3.00
2019-06-08T22:22:03.959Z,3.00
2019-06-08T22:24:33.584Z,3.30
2019-06-08T22:27:03.694Z,2.40
2019-06-08T22:29:33.414Z,3.03
2019-06-08T22:32:03.861Z,2.37
2019-06-08T22:34:33.383Z,2.83
2019-06-08T22:37:02.994Z,3.10
2019-06-08T22:39:32.587Z,2.67
2019-06-08T22:42:02.203Z,2.30
2019-06-08T22:44:31.715Z,3.07
2019-06-08T22:47:03.027Z,3.00
2019-06-08T22:49:32.676Z,2.90
2019-06-08T22:52:03.032Z,2.80
2019-06-08T22:54:33.604Z,2.90
2019-06-08T22:57:04.757Z,3.10
2019-06-08T22:59:34.451Z,2.50
2019-06-08T23:02:05.783Z,2.50
2019-06-08T23:04:35.347Z,3.43
2019-06-08T23:07:07.000Z,4.13
2019-06-08T23:09:37.336Z,5.50
2019-06-08T23:12:09.347Z,3.20
2019-06-08T23:14:38.193Z,3.60
2019-06-08T23:17:08.610Z,3.53
2019-06-08T23:19:38.236Z,2.83
2019-06-08T23:22:08.405Z,3.93
2019-06-08T23:24:38.333Z,5.20
2019-06-08T23:27:08.347Z,3.23
2019-06-08T23:29:38.260Z,3.10
2019-06-08T23:32:11.414Z,2.87
2019-06-08T23:34:39.247Z,3.10
2019-06-08T23:37:12.655Z,3.47
2019-06-08T23:39:40.054Z,3.30
2019-06-08T23:42:09.846Z,3.00
2019-06-08T23:44:39.438Z,3.87
2019-06-08T23:47:09.057Z,4.10
2019-06-08T23:49:38.644Z,3.10
2019-06-08T23:52:11.299Z,3.33
2019-06-08T23:54:39.390Z,3.30
2019-06-08T23:57:10.988Z,2.47
2019-06-08T23:59:40.141Z,2.73
